Time;durP1;ratioP1;P1;durP2;ratioP2;P2;SDS_P1;SDS_P2;PMS_P1;PMS_P2;Temp;Humidity;BMP_temperature;BMP_pressure;BME280_temperature;BME280_humidity;BME280_pressure;Samples;Min_cycle;Max_cycle;Signal;HPM_P1;HPM_P2
2023/11/23 00:01:23;;;;;;;18.05;14.18;;;2.20;76.90;;;;;;5016068;28;20467;-74
2023/11/23 00:03:49;;;;;;;17.92;13.82;;;2.30;77.20;;;;;;5015915;28;20030;-74
2023/11/23 00:06:14;;;;;;;19.48;13.40;;;2.30;76.70;;;;;;5015837;28;20038;-74
2023/11/23 00:08:41;;;;;;;15.65;12.55;;;2.30;76.80;;;;;;4998026;28;20069;-74
2023/11/23 00:11:09;;;;;;;18.13;14.90;;;2.40;76.90;;;;;;5015796;28;20014;-74
2023/11/23 00:13:35;;;;;;;15.65;12.90;;;2.40;76.70;;;;;;5015401;28;20465;-74
2023/11/23 00:16:02;;;;;;;19.30;12.88;;;2.50;76.90;;;;;;5015579;28;20030;-74
2023/11/23 00:18:27;;;;;;;16.55;12.25;;;2.60;75.90;;;;;;5015502;28;20101;-74
2023/11/23 00:20:55;;;;;;;18.02;14.38;;;2.70;75.60;;;;;;5015207;28;20033;-74
2023/11/23 00:23:20;;;;;;;20.75;14.63;;;2.70;75.80;;;;;;5014630;28;20026;-73
2023/11/23 00:25:46;;;;;;;22.42;17.30;;;2.70;76.20;;;;;;4997889;28;20387;-74
2023/11/23 00:28:11;;;;;;;19.73;15.35;;;2.60;77.10;;;;;;4997544;28;20404;-74
2023/11/23 00:30:37;;;;;;;21.15;14.82;;;2.60;77.80;;;;;;5015380;28;20353;-74
2023/11/23 00:33:03;;;;;;;22.65;14.90;;;2.60;77.50;;;;;;5015373;28;20043;-74
2023/11/23 00:35:29;;;;;;;19.52;14.10;;;2.60;77.90;;;;;;5015224;28;20416;-73
2023/11/23 00:37:54;;;;;;;19.65;13.75;;;2.40;78.00;;;;;;5015236;28;20102;-74
2023/11/23 00:40:20;;;;;;;18.33;12.80;;;2.40;78.50;;;;;;5015262;28;20026;-73
2023/11/23 00:42:45;;;;;;;18.10;12.38;;;2.40;78.30;;;;;;5015120;28;20029;-73
2023/11/23 00:45:14;;;;;;;16.63;11.48;;;2.40;77.80;;;;;;4997625;28;20049;-74
2023/11/23 00:47:41;;;;;;;21.65;12.32;;;2.40;77.70;;;;;;5015045;28;20026;-74
2023/11/23 00:50:08;;;;;;;16.27;10.57;;;2.30;78.10;;;;;;5015049;28;20072;-73
2023/11/23 00:52:34;;;;;;;17.00;11.52;;;2.30;78.80;;;;;;5014877;28;20430;-73
2023/11/23 00:55:00;;;;;;;17.33;11.05;;;2.30;79.00;;;;;;5015020;28;20018;-73
2023/11/23 00:57:25;;;;;;;15.80;10.73;;;2.30;78.90;;;;;;5014701;28;20407;-74
2023/11/23 00:59:51;;;;;;;18.02;11.27;;;2.40;78.80;;;;;;5014943;28;20025;-74
2023/11/23 01:02:19;;;;;;;19.58;10.57;;;2.40;78.90;;;;;;5014768;28;20367;-74
2023/11/23 01:04:45;;;;;;;18.27;12.80;;;2.40;79.10;;;;;;5014453;28;20034;-74
2023/11/23 01:07:10;;;;;;;18.98;12.43;;;2.50;78.70;;;;;;5014236;28;20079;-74
2023/11/23 01:09:36;;;;;;;19.33;12.60;;;2.50;78.20;;;;;;5014419;28;20026;-74
2023/11/23 01:12:02;;;;;;;16.42;11.85;;;2.40;78.30;;;;;;5014419;28;20036;-74
2023/11/23 01:14:28;;;;;;;17.55;12.57;;;2.30;78.50;;;;;;4996782;28;20030;-75
2023/11/23 01:16:53;;;;;;;13.40;10.10;;;2.30;78.90;;;;;;4996718;28;20414;-74
2023/11/23 01:19:19;;;;;;;16.70;12.82;;;2.30;78.50;;;;;;5014398;28;20029;-74
2023/11/23 01:21:44;;;;;;;16.58;11.52;;;2.40;77.60;;;;;;5014207;28;20100;-73
2023/11/23 01:24:11;;;;;;;16.30;11.63;;;2.30;77.40;;;;;;5014345;28;20445;-74
2023/11/23 01:26:37;;;;;;;14.52;10.52;;;2.30;77.70;;;;;;5014194;28;20021;-74
2023/11/23 01:29:02;;;;;;;16.23;10.95;;;2.30;78.30;;;;;;5013961;28;20140;-74
2023/11/23 01:31:29;;;;;;;15.02;10.15;;;2.30;77.80;;;;;;4996431;28;20022;-74
2023/11/23 01:33:54;;;;;;;16.17;12.10;;;2.40;77.60;;;;;;5014004;28;20026;-74
2023/11/23 01:36:20;;;;;;;16.20;10.70;;;2.50;77.40;;;;;;5014100;28;20368;-74
2023/11/23 01:38:45;;;;;;;15.32;10.43;;;2.50;77.10;;;;;;5013969;28;20391;-74
2023/11/23 01:41:11;;;;;;;15.18;10.13;;;2.50;77.10;;;;;;5013908;28;20420;-74
2023/11/23 01:43:36;;;;;;;15.98;9.07;;;2.50;77.00;;;;;;5013941;28;20030;-75
2023/11/23 01:46:02;;;;;;;14.95;11.70;;;2.50;77.20;;;;;;5013561;28;20022;-75
2023/11/23 01:48:30;;;;;;;15.80;12.27;;;2.60;78.20;;;;;;5013840;28;20034;-75
2023/11/23 01:50:57;;;;;;;15.82;11.57;;;2.60;77.50;;;;;;4996205;28;20026;-75
2023/11/23 01:53:23;;;;;;;17.40;13.63;;;2.60;77.40;;;;;;5013720;28;20088;-74
2023/11/23 01:55:49;;;;;;;15.52;12.48;;;2.60;77.60;;;;;;5013744;28;20026;-74
2023/11/23 01:58:17;;;;;;;16.27;12.35;;;2.50;77.90;;;;;;5013474;28;20536;-74
2023/11/23 02:00:45;;;;;;;16.63;12.02;;;2.50;78.20;;;;;;5013836;28;20398;-74
2023/11/23 02:03:10;;;;;;;17.75;12.40;;;2.50;78.40;;;;;;5014044;28;20417;-73
2023/11/23 02:05:36;;;;;;;16.50;12.02;;;2.50;78.70;;;;;;5013733;28;20030;-73
2023/11/23 02:08:02;;;;;;;16.15;11.43;;;2.50;79.00;;;;;;5013779;28;20367;-73
2023/11/23 02:10:27;;;;;;;17.90;10.95;;;2.50;79.00;;;;;;5013660;28;20029;-74
2023/11/23 02:12:55;;;;;;;16.88;11.10;;;2.50;79.10;;;;;;5013587;28;20505;-74
2023/11/23 02:15:22;;;;;;;17.17;11.05;;;2.50;79.10;;;;;;5013207;28;20378;-74
2023/11/23 02:17:58;;;;;;;14.80;10.45;;;2.50;79.20;;;;;;5013387;28;20479;-74
2023/11/23 02:20:24;;;;;;;15.20;10.15;;;2.60;79.20;;;;;;5013498;28;20030;-73
2023/11/23 02:22:50;;;;;;;16.75;11.52;;;2.60;79.10;;;;;;5013308;28;20077;-73
2023/11/23 02:25:15;;;;;;;14.60;9.48;;;2.70;79.10;;;;;;5013350;28;20378;-74
2023/11/23 02:27:41;;;;;;;14.93;10.23;;;2.60;79.00;;;;;;4995483;28;20038;-74
2023/11/23 02:30:07;;;;;;;16.27;10.60;;;2.60;79.00;;;;;;5013313;28;20106;-74
2023/11/23 02:32:33;;;;;;;13.65;9.10;;;2.60;79.10;;;;;;5013170;28;20030;-75
2023/11/23 02:34:58;;;;;;;15.88;10.38;;;2.60;79.10;;;;;;5013119;28;20049;-74
2023/11/23 02:37:24;;;;;;;14.88;11.35;;;2.70;79.30;;;;;;5013037;28;20384;-74
2023/11/23 02:39:50;;;;;;;16.02;10.60;;;2.70;79.20;;;;;;5013075;28;20076;-73
2023/11/23 02:42:15;;;;;;;16.55;11.25;;;2.70;78.90;;;;;;5012837;28;20461;-73
2023/11/23 02:44:41;;;;;;;17.88;11.27;;;2.70;78.90;;;;;;4995422;28;20618;-73
2023/11/23 02:47:07;;;;;;;15.75;10.45;;;2.70;79.00;;;;;;5012500;28;20466;-74
2023/11/23 02:49:32;;;;;;;13.63;9.45;;;2.70;79.10;;;;;;5012887;28;20045;-74
2023/11/23 02:51:58;;;;;;;15.07;9.45;;;2.70;79.10;;;;;;5012774;28;20044;-74
2023/11/23 02:54:23;;;;;;;17.05;11.68;;;2.70;79.20;;;;;;4995186;28;20018;-74
2023/11/23 02:56:49;;;;;;;17.13;10.43;;;2.70;79.20;;;;;;5012717;28;20045;-74
2023/11/23 02:59:16;;;;;;;15.48;10.63;;;2.70;79.20;;;;;;5012807;28;20096;-74
2023/11/23 03:01:41;;;;;;;15.80;10.80;;;2.70;79.20;;;;;;5013130;28;20026;-73
2023/11/23 03:04:07;;;;;;;14.98;10.52;;;2.70;79.20;;;;;;5012853;28;20117;-73
2023/11/23 03:06:33;;;;;;;15.15;9.75;;;2.60;79.30;;;;;;5012785;28;20034;-73
2023/11/23 03:08:59;;;;;;;20.73;9.80;;;2.60;79.40;;;;;;5001230;28;20348;-73
2023/11/23 03:11:26;;;;;;;14.30;10.05;;;2.60;79.40;;;;;;4994080;28;20087;-74
2023/11/23 03:13:57;;;;;;;17.20;12.57;;;2.60;79.50;;;;;;5012853;28;20022;-74
2023/11/23 03:16:24;;;;;;;17.67;12.95;;;2.60;79.60;;;;;;5012796;28;20022;-73
2023/11/23 03:18:50;;;;;;;16.13;12.20;;;2.50;79.80;;;;;;5012826;28;20018;-72
2023/11/23 03:21:16;;;;;;;17.25;13.18;;;2.50;80.00;;;;;;5012653;28;20029;-74
2023/11/23 03:23:42;;;;;;;17.02;12.82;;;2.40;80.20;;;;;;5012902;28;20026;-74
2023/11/23 03:26:08;;;;;;;17.55;12.45;;;2.30;80.40;;;;;;5013015;28;20050;-74
2023/11/23 03:28:34;;;;;;;15.00;12.57;;;2.30;80.50;;;;;;5013610;28;20033;-73
2023/11/23 03:30:59;;;;;;;17.67;12.52;;;2.30;80.50;;;;;;5013408;28;20025;-73
2023/11/23 03:33:24;;;;;;;17.50;11.43;;;2.30;80.60;;;;;;5012655;28;20044;-73
2023/11/23 03:35:50;;;;;;;17.13;11.15;;;2.20;80.70;;;;;;5012681;28;20033;-73
2023/11/23 03:38:16;;;;;;;15.85;10.98;;;2.20;80.90;;;;;;5012276;28;20028;-73
2023/11/23 03:40:42;;;;;;;17.02;9.90;;;2.20;81.00;;;;;;5012456;28;20022;-75
2023/11/23 03:43:09;;;;;;;17.25;10.65;;;2.20;81.10;;;;;;5012748;28;20037;-74
2023/11/23 03:45:35;;;;;;;15.90;10.57;;;2.10;81.20;;;;;;5012700;28;20026;-74
2023/11/23 03:48:01;;;;;;;18.40;11.30;;;2.10;81.30;;;;;;5012496;28;20084;-74
2023/11/23 03:50:26;;;;;;;18.55;10.25;;;2.10;81.30;;;;;;5013489;28;20093;-74
2023/11/23 03:52:52;;;;;;;17.17;11.30;;;2.10;81.30;;;;;;5012523;28;20034;-75
2023/11/23 03:55:18;;;;;;;15.07;9.90;;;2.10;81.30;;;;;;5012432;28;20025;-74
2023/11/23 03:57:48;;;;;;;22.88;15.52;;;2.10;81.30;;;;;;5012352;28;20478;-74
2023/11/23 04:00:15;;;;;;;29.83;20.15;;;2.10;81.20;;;;;;5016108;28;20037;-74
2023/11/23 04:02:42;;;;;;;37.63;23.00;;;2.10;81.20;;;;;;5015868;28;20030;-74
2023/11/23 04:05:08;;;;;;;17.75;11.88;;;2.10;81.00;;;;;;5016109;28;20034;-76
2023/11/23 04:07:34;;;;;;;28.95;18.77;;;1.90;80.80;;;;;;5015836;28;20368;-75
2023/11/23 04:10:00;;;;;;;62.10;49.25;;;1.90;81.10;;;;;;5016132;28;20367;-73
2023/11/23 04:12:25;;;;;;;25.63;17.55;;;1.80;81.40;;;;;;5015864;28;20034;-74
2023/11/23 04:14:51;;;;;;;17.35;13.07;;;1.80;81.70;;;;;;5015832;28;20025;-73
2023/11/23 04:17:16;;;;;;;18.80;11.52;;;1.80;82.00;;;;;;5015671;28;20033;-74
2023/11/23 04:19:43;;;;;;;20.17;12.07;;;1.70;82.00;;;;;;5015687;28;20109;-73
2023/11/23 04:22:09;;;;;;;21.17;12.85;;;1.80;82.10;;;;;;5015611;28;20084;-75
2023/11/23 04:24:38;;;;;;;18.33;11.30;;;1.70;82.10;;;;;;5015691;28;20029;-75
2023/11/23 04:27:04;;;;;;;18.67;11.88;;;1.70;82.20;;;;;;5015336;28;20367;-73
2023/11/23 04:29:30;;;;;;;15.50;10.30;;;1.70;82.20;;;;;;5015144;28;20017;-73
2023/11/23 04:31:55;;;;;;;16.17;9.90;;;1.70;82.30;;;;;;5015157;28;20037;-73
2023/11/23 04:34:22;;;;;;;14.50;9.38;;;1.70;82.10;;;;;;5015437;28;20050;-73
2023/11/23 04:36:48;;;;;;;12.13;8.73;;;1.70;82.10;;;;;;5015348;28;20017;-73
2023/11/23 04:39:14;;;;;;;14.88;9.25;;;1.70;82.10;;;;;;5015131;28;20471;-73
2023/11/23 04:41:39;;;;;;;12.73;9.98;;;1.70;82.00;;;;;;4997610;28;20030;-73
2023/11/23 04:44:05;;;;;;;15.85;10.65;;;1.70;82.10;;;;;;4997575;28;20494;-73
2023/11/23 04:46:30;;;;;;;19.35;10.88;;;1.60;81.90;;;;;;5015028;28;20522;-73
2023/11/23 04:48:56;;;;;;;18.20;11.57;;;1.60;82.00;;;;;;5014936;28;20018;-73
2023/11/23 04:51:22;;;;;;;22.40;11.63;;;1.60;81.90;;;;;;5015059;28;20026;-73
2023/11/23 04:53:47;;;;;;;19.83;12.25;;;1.50;82.00;;;;;;5015017;28;20029;-73
2023/11/23 04:56:13;;;;;;;18.58;12.48;;;1.50;82.10;;;;;;5015076;28;20160;-74
2023/11/23 04:58:39;;;;;;;16.63;10.60;;;1.50;82.10;;;;;;5014951;28;20038;-73
2023/11/23 05:01:05;;;;;;;16.80;10.85;;;1.50;82.00;;;;;;5014836;28;20034;-74
2023/11/23 05:03:31;;;;;;;16.15;10.70;;;1.50;82.00;;;;;;5014732;28;20030;-74
2023/11/23 05:05:56;;;;;;;16.08;9.85;;;1.40;81.70;;;;;;5014631;28;20076;-73
2023/11/23 05:08:22;;;;;;;14.35;9.63;;;1.40;81.70;;;;;;5014560;28;20446;-74
2023/11/23 05:10:48;;;;;;;15.50;9.75;;;1.30;81.90;;;;;;4996690;28;20113;-74
2023/11/23 05:13:14;;;;;;;12.50;8.55;;;1.30;81.90;;;;;;5014581;28;20120;-74
2023/11/23 05:15:40;;;;;;;14.63;9.02;;;1.30;82.10;;;;;;5014622;28;20026;-73
2023/11/23 05:18:06;;;;;;;14.80;8.70;;;1.20;82.10;;;;;;5014488;28;20386;-74
2023/11/23 05:20:32;;;;;;;15.65;9.18;;;1.20;82.10;;;;;;5014561;28;20351;-74
2023/11/23 05:22:58;;;;;;;15.30;9.25;;;1.10;82.50;;;;;;5014276;28;20026;-73
2023/11/23 05:25:24;;;;;;;13.25;9.18;;;1.10;82.70;;;;;;5014232;28;20552;-74
2023/11/23 05:27:49;;;;;;;13.88;9.25;;;1.00;82.70;;;;;;5014275;28;20038;-74
2023/11/23 05:30:16;;;;;;;13.57;9.27;;;1.10;82.70;;;;;;5014254;28;20036;-74
2023/11/23 05:32:42;;;;;;;14.13;8.40;;;1.10;82.50;;;;;;5014095;28;20071;-74
2023/11/23 05:35:08;;;;;;;11.50;7.80;;;1.10;82.50;;;;;;5014517;28;20092;-75
2023/11/23 05:37:33;;;;;;;12.80;7.90;;;1.10;82.40;;;;;;5014315;28;20026;-73
2023/11/23 05:39:59;;;;;;;11.55;7.22;;;1.10;82.50;;;;;;5014267;28;20028;-73
2023/11/23 05:42:26;;;;;;;13.07;8.05;;;1.10;82.10;;;;;;5014286;28;20084;-72
2023/11/23 05:44:52;;;;;;;11.98;8.30;;;1.10;81.90;;;;;;4996381;28;20053;-73
2023/11/23 05:47:17;;;;;;;10.77;7.47;;;1.10;81.80;;;;;;5013717;28;20473;-74
2023/11/23 05:49:43;;;;;;;15.00;8.80;;;1.10;81.90;;;;;;5014140;28;20026;-75
2023/11/23 05:52:09;;;;;;;14.30;8.50;;;1.00;82.20;;;;;;5014050;28;20053;-73
2023/11/23 05:54:35;;;;;;;13.05;8.10;;;1.00;82.20;;;;;;5014000;28;20026;-75
2023/11/23 05:57:00;;;;;;;17.80;9.63;;;1.10;82.40;;;;;;4996054;28;20029;-74
2023/11/23 05:59:26;;;;;;;16.35;8.15;;;1.10;82.20;;;;;;5013910;28;20120;-74
2023/11/23 06:01:51;;;;;;;14.13;9.13;;;1.10;82.20;;;;;;5013699;28;20089;-75
2023/11/23 06:04:17;;;;;;;12.07;7.57;;;1.10;82.10;;;;;;5013726;28;20032;-74
2023/11/23 06:06:43;;;;;;;13.10;8.27;;;1.10;81.90;;;;;;5013558;28;20467;-74
2023/11/23 06:09:11;;;;;;;13.60;8.15;;;1.00;81.60;;;;;;4996012;28;20447;-74
2023/11/23 06:11:37;;;;;;;13.65;8.43;;;0.90;81.60;;;;;;4995172;28;20033;-74
2023/11/23 06:14:03;;;;;;;12.68;7.40;;;0.90;82.50;;;;;;5013322;28;20026;-75
2023/11/23 06:16:28;;;;;;;14.27;8.13;;;0.90;81.80;;;;;;5012984;28;20026;-74
2023/11/23 06:18:54;;;;;;;13.45;8.95;;;1.00;81.80;;;;;;5013296;28;20053;-74
2023/11/23 06:21:19;;;;;;;12.18;8.18;;;1.00;81.60;;;;;;5012447;28;20095;-74
2023/11/23 06:23:47;;;;;;;9.85;7.03;;;1.00;81.30;;;;;;4995622;28;20030;-74
2023/11/23 06:26:13;;;;;;;20.00;11.43;;;1.00;81.30;;;;;;5013177;28;20437;-73
2023/11/23 06:28:38;;;;;;;25.75;13.93;;;1.00;81.40;;;;;;5012969;28;20033;-74
2023/11/23 06:31:04;;;;;;;19.55;14.13;;;1.00;81.20;;;;;;5012483;28;20021;-75
2023/11/23 06:33:30;;;;;;;17.95;12.07;;;1.00;81.20;;;;;;5013296;28;20542;-73
2023/11/23 06:35:56;;;;;;;38.95;26.38;;;1.10;81.50;;;;;;5013276;28;20098;-73
2023/11/23 06:38:23;;;;;;;89.00;53.47;;;1.10;81.50;;;;;;5013055;28;20471;-74
2023/11/23 06:40:49;;;;;;;66.78;41.90;;;1.20;81.50;;;;;;5012987;28;20085;-73
2023/11/23 06:43:15;;;;;;;26.80;16.35;;;1.10;81.10;;;;;;5013016;28;20461;-74
2023/11/23 06:45:41;;;;;;;22.35;14.90;;;1.10;80.90;;;;;;4995362;28;20034;-74
2023/11/23 06:48:06;;;;;;;14.50;10.68;;;1.20;81.00;;;;;;4995226;28;20034;-74
2023/11/23 06:50:32;;;;;;;12.05;8.88;;;1.20;81.00;;;;;;5013114;28;20665;-73
2023/11/23 06:52:59;;;;;;;11.23;7.38;;;1.20;80.70;;;;;;5012835;28;20068;-74
2023/11/23 06:55:24;;;;;;;13.82;7.55;;;1.20;80.50;;;;;;5012882;28;20084;-74
2023/11/23 06:57:50;;;;;;;15.80;7.85;;;1.20;80.40;;;;;;4994872;28;20502;-74
2023/11/23 07:00:22;;;;;;;11.95;8.60;;;1.20;80.60;;;;;;4995056;28;20564;-74
2023/11/23 07:02:58;;;;;;;14.60;8.38;;;1.20;80.50;;;;;;5012755;28;20061;-74
2023/11/23 07:05:24;;;;;;;14.57;8.55;;;1.20;80.50;;;;;;5012611;28;20030;-75
2023/11/23 07:07:51;;;;;;;13.90;8.82;;;1.20;80.30;;;;;;5012785;28;20034;-75
2023/11/23 07:10:17;;;;;;;14.93;9.00;;;1.20;80.20;;;;;;5012632;28;20033;-75
2023/11/23 07:12:44;;;;;;;19.70;8.50;;;1.10;80.30;;;;;;5012444;28;20033;-75
2023/11/23 07:15:12;;;;;;;15.10;8.18;;;1.10;80.20;;;;;;5012588;28;20378;-74
2023/11/23 07:17:38;;;;;;;14.00;8.05;;;1.00;80.20;;;;;;5012564;28;20026;-75
2023/11/23 07:20:05;;;;;;;15.07;9.23;;;1.10;80.30;;;;;;5012859;28;20359;-75
2023/11/23 07:22:33;;;;;;;16.45;10.95;;;1.10;80.10;;;;;;5012654;28;20479;-73
2023/11/23 07:24:59;;;;;;;16.73;9.45;;;1.10;80.20;;;;;;5012751;28;20444;-74
2023/11/23 07:27:26;;;;;;;15.35;9.65;;;1.10;80.50;;;;;;5012562;28;20124;-74
2023/11/23 07:29:51;;;;;;;21.10;11.00;;;1.20;80.60;;;;;;5012673;28;20040;-74
2023/11/23 07:32:17;;;;;;;18.48;10.50;;;1.20;80.40;;;;;;4995759;28;20098;-75
2023/11/23 07:34:42;;;;;;;15.88;8.80;;;1.30;80.40;;;;;;5016640;28;20105;-74
2023/11/23 07:37:10;;;;;;;16.73;11.35;;;1.40;80.20;;;;;;5016459;28;20026;-75
2023/11/23 07:39:36;;;;;;;17.88;11.20;;;1.40;79.90;;;;;;5016262;28;20022;-74
2023/11/23 07:42:03;;;;;;;18.60;11.95;;;1.50;79.40;;;;;;5016238;28;20073;-75
2023/11/23 07:44:29;;;;;;;19.92;11.38;;;1.60;79.40;;;;;;5016503;28;20414;-74
2023/11/23 07:46:54;;;;;;;20.00;10.65;;;1.70;79.20;;;;;;5016153;28;20071;-74
2023/11/23 07:49:20;;;;;;;13.88;9.50;;;1.80;78.90;;;;;;5016166;28;20030;-74
2023/11/23 07:51:45;;;;;;;13.98;9.35;;;1.80;78.80;;;;;;5016008;28;20021;-74
2023/11/23 07:54:11;;;;;;;14.20;9.45;;;1.90;78.30;;;;;;4998556;28;20168;-74
2023/11/23 07:56:36;;;;;;;13.45;8.68;;;1.90;78.10;;;;;;5016073;28;20057;-74
2023/11/23 07:59:02;;;;;;;14.20;8.15;;;2.00;77.30;;;;;;5015798;28;20050;-75
2023/11/23 08:01:28;;;;;;;11.93;8.25;;;2.10;76.80;;;;;;5015944;28;20022;-74
2023/11/23 08:03:53;;;;;;;10.95;7.85;;;2.00;76.10;;;;;;5015997;28;20301;-74
2023/11/23 08:06:19;;;;;;;11.68;7.60;;;2.10;76.40;;;;;;4997974;28;20030;-75
2023/11/23 08:08:45;;;;;;;11.07;7.82;;;2.20;76.30;;;;;;5015972;28;20041;-74
2023/11/23 08:11:10;;;;;;;10.20;7.32;;;2.30;76.20;;;;;;5015703;28;20030;-74
2023/11/23 08:13:36;;;;;;;13.77;7.18;;;2.50;76.00;;;;;;5015576;28;20033;-75
2023/11/23 08:16:04;;;;;;;11.98;6.63;;;2.80;83.30;;;;;;5015506;28;20072;-75
2023/11/23 08:18:30;;;;;;;11.00;7.15;;;3.00;81.00;;;;;;5015266;28;20454;-75
2023/11/23 08:20:57;;;;;;;12.02;7.20;;;3.30;82.10;;;;;;5015318;28;20080;-74
2023/11/23 08:23:23;;;;;;;14.15;5.97;;;3.60;78.60;;;;;;4997911;28;20030;-77
2023/11/23 08:25:49;;;;;;;8.63;6.40;;;3.80;75.00;;;;;;5015417;28;20034;-73
2023/11/23 08:28:16;;;;;;;6.75;5.53;;;4.10;74.40;;;;;;5015566;28;20034;-73
2023/11/23 08:30:42;;;;;;;10.05;5.75;;;4.30;71.40;;;;;;4997099;28;20022;-73
2023/11/23 08:33:07;;;;;;;8.63;5.18;;;4.60;72.00;;;;;;5015058;28;20022;-74
2023/11/23 08:35:33;;;;;;;7.35;5.50;;;4.60;68.60;;;;;;5015132;28;20357;-73
2023/11/23 08:37:59;;;;;;;6.80;5.13;;;4.90;68.60;;;;;;5015207;28;20058;-74
2023/11/23 08:40:24;;;;;;;8.07;5.00;;;4.90;65.50;;;;;;4997699;28;20040;-74
2023/11/23 08:42:50;;;;;;;6.32;4.43;;;5.20;67.00;;;;;;5015191;28;20116;-74
2023/11/23 08:45:16;;;;;;;7.07;4.63;;;5.50;65.40;;;;;;5013903;28;20025;-74
2023/11/23 08:47:41;;;;;;;6.43;3.97;;;5.80;64.60;;;;;;5014881;28;20048;-74
2023/11/23 08:50:09;;;;;;;6.43;4.45;;;6.00;63.20;;;;;;5014952;28;20045;-79
2023/11/23 08:52:37;;;;;;;8.20;5.03;;;6.30;62.80;;;;;;4997441;28;20463;-77
2023/11/23 08:55:04;;;;;;;8.50;5.13;;;6.40;60.40;;;;;;5015043;28;20026;-74
2023/11/23 08:57:29;;;;;;;6.13;4.55;;;6.40;59.50;;;;;;5014582;28;20045;-75
2023/11/23 08:59:55;;;;;;;7.63;5.05;;;6.50;60.30;;;;;;5014625;28;20121;-73
2023/11/23 09:02:21;;;;;;;6.75;3.90;;;6.50;59.20;;;;;;4996887;28;20060;-73
2023/11/23 09:04:47;;;;;;;6.80;4.80;;;6.60;58.40;;;;;;5014593;28;20018;-73
2023/11/23 09:07:13;;;;;;;5.03;3.90;;;6.70;58.20;;;;;;5014561;28;20084;-73
2023/11/23 09:09:39;;;;;;;4.00;3.33;;;6.80;57.10;;;;;;5014436;28;20030;-73
2023/11/23 09:12:05;;;;;;;3.13;2.60;;;6.80;55.80;;;;;;5014475;28;20030;-73
2023/11/23 09:14:30;;;;;;;5.43;2.80;;;6.90;55.70;;;;;;5014694;28;20374;-73
2023/11/23 09:16:56;;;;;;;3.63;3.22;;;7.00;54.90;;;;;;5014421;28;20446;-73
2023/11/23 09:19:22;;;;;;;5.95;3.75;;;6.90;54.10;;;;;;4996799;28;20543;-73
2023/11/23 09:21:47;;;;;;;5.18;4.03;;;7.00;53.50;;;;;;5014225;28;20470;-73
2023/11/23 09:24:14;;;;;;;5.90;3.85;;;7.10;53.70;;;;;;5014303;28;20022;-73
2023/11/23 09:26:40;;;;;;;5.50;3.90;;;7.30;52.80;;;;;;5014021;28;20057;-74
2023/11/23 09:29:05;;;;;;;5.63;4.13;;;7.50;53.00;;;;;;4996569;28;20029;-74
2023/11/23 09:31:33;;;;;;;10.95;4.80;;;7.50;52.20;;;;;;5014171;28;20049;-73
2023/11/23 09:33:59;;;;;;;9.88;5.10;;;7.40;51.80;;;;;;5013967;28;20025;-73
2023/11/23 09:36:25;;;;;;;12.63;5.47;;;7.50;52.90;;;;;;5014109;28;20596;-74
2023/11/23 09:38:51;;;;;;;11.05;5.40;;;7.50;53.10;;;;;;5013783;28;20069;-73
2023/11/23 09:41:20;;;;;;;7.93;4.20;;;7.30;53.40;;;;;;5013714;28;20075;-73
2023/11/23 09:43:47;;;;;;;6.15;4.63;;;7.20;54.20;;;;;;5013824;28;20390;-73
2023/11/23 09:46:13;;;;;;;9.40;4.78;;;7.30;54.60;;;;;;5013802;28;20033;-73
2023/11/23 09:48:42;;;;;;;12.75;5.72;;;7.40;54.20;;;;;;5013952;28;20552;-73
2023/11/23 09:51:09;;;;;;;6.15;3.92;;;7.60;53.60;;;;;;5013780;28;20030;-74
2023/11/23 09:53:36;;;;;;;7.63;4.55;;;7.70;53.40;;;;;;4996108;28;20037;-74
2023/11/23 09:56:03;;;;;;;6.78;4.43;;;7.90;53.00;;;;;;5012778;28;20022;-74
2023/11/23 09:58:30;;;;;;;7.22;4.15;;;8.10;53.20;;;;;;5013399;28;20129;-74
2023/11/23 10:01:00;;;;;;;5.25;4.03;;;8.40;53.40;;;;;;5013244;28;20037;-74
2023/11/23 10:03:31;;;;;;;4.95;3.90;;;8.70;51.90;;;;;;5013529;28;20030;-74
2023/11/23 10:05:57;;;;;;;6.07;3.88;;;9.00;50.50;;;;;;5013520;28;20022;-74
2023/11/23 10:08:23;;;;;;;5.70;4.20;;;9.20;50.30;;;;;;5013325;28;20044;-74
2023/11/23 10:10:50;;;;;;;4.32;3.20;;;9.40;49.60;;;;;;5013780;28;20101;-74
2023/11/23 10:13:17;;;;;;;4.72;3.30;;;9.60;49.00;;;;;;5013426;28;20050;-74
2023/11/23 10:15:47;;;;;;;3.80;3.15;;;9.70;49.10;;;;;;5013447;28;20488;-73
2023/11/23 10:18:13;;;;;;;5.30;3.08;;;9.40;49.80;;;;;;5013116;28;20026;-74
2023/11/23 10:20:43;;;;;;;4.50;2.95;;;9.40;49.80;;;;;;5013223;28;20026;-73
2023/11/23 10:23:09;;;;;;;6.93;3.40;;;9.20;51.10;;;;;;4995669;28;20030;-74
2023/11/23 10:25:35;;;;;;;3.75;2.78;;;9.40;51.30;;;;;;4995444;28;20079;-73
2023/11/23 10:28:03;;;;;;;4.68;3.03;;;9.70;50.20;;;;;;5013068;28;20029;-73
2023/11/23 10:30:30;;;;;;;3.70;3.15;;;9.80;49.90;;;;;;4995403;28;20065;-73
2023/11/23 10:32:56;;;;;;;4.22;3.20;;;9.70;49.90;;;;;;5013011;28;20022;-74
2023/11/23 10:35:26;;;;;;;4.10;3.00;;;9.90;50.90;;;;;;5013019;28;20021;-74
2023/11/23 10:37:54;;;;;;;2.53;2.25;;;10.40;50.10;;;;;;5013125;28;20026;-74
2023/11/23 10:40:28;;;;;;;4.03;3.08;;;11.00;48.80;;;;;;5012878;28;20030;-74
2023/11/23 10:42:54;;;;;;;7.30;3.38;;;11.30;46.30;;;;;;5013244;28;20022;-73
2023/11/23 10:45:21;;;;;;;5.47;3.50;;;10.60;47.50;;;;;;5013045;28;20045;-74
2023/11/23 10:47:47;;;;;;;4.25;3.85;;;9.80;49.50;;;;;;5012940;28;20033;-74
2023/11/23 10:50:18;;;;;;;3.70;3.40;;;9.10;52.50;;;;;;5013075;28;20022;-74
2023/11/23 10:52:45;;;;;;;6.78;4.03;;;9.00;53.30;;;;;;5012984;28;20080;-74
2023/11/23 10:55:11;;;;;;;5.78;3.25;;;9.50;53.30;;;;;;5012997;28;20045;-74
2023/11/23 10:57:57;;;;;;;3.72;3.25;;;10.00;51.90;;;;;;4995320;28;20514;-75
2023/11/23 11:00:25;;;;;;;4.00;3.17;;;10.60;51.30;;;;;;5012746;28;20487;-73
2023/11/23 11:02:54;;;;;;;4.53;3.17;;;11.10;49.00;;;;;;5012661;28;20030;-73
2023/11/23 11:05:28;;;;;;;7.55;3.80;;;11.60;47.80;;;;;;5012841;28;20025;-74
2023/11/23 11:08:05;;;;;;;3.63;2.85;;;11.70;46.50;;;;;;5014349;28;20026;-75
2023/11/23 11:10:50;;;;;;;3.13;2.65;;;11.60;46.30;;;;;;5016744;28;20025;-75
2023/11/23 11:13:17;;;;;;;6.10;4.90;;;11.20;47.40;;;;;;5016474;28;20046;-74
2023/11/23 11:16:03;;;;;;;3.45;2.53;;;10.50;50.30;;;;;;5016715;28;20019;-74
2023/11/23 11:18:29;;;;;;;1.60;1.50;;;10.10;51.80;;;;;;5016837;28;20018;-74
2023/11/23 11:21:08;;;;;;;1.45;1.35;;;10.00;52.70;;;;;;5016677;28;20076;-74
2023/11/23 11:23:40;;;;;;;2.33;1.67;;;9.90;53.90;;;;;;5016455;28;20018;-74
2023/11/23 11:26:09;;;;;;;2.47;2.00;;;9.60;54.30;;;;;;5016076;28;20053;-73
2023/11/23 11:28:36;;;;;;;1.55;1.40;;;9.30;55.10;;;;;;5016139;28;20121;-74
2023/11/23 11:31:06;;;;;;;2.65;2.05;;;8.80;57.50;;;;;;5016032;28;20033;-73
2023/11/23 11:33:35;;;;;;;2.75;2.05;;;8.60;58.80;;;;;;5015935;28;20022;-73
2023/11/23 11:36:01;;;;;;;2.88;2.33;;;8.20;60.90;;;;;;5016516;28;20378;-75
2023/11/23 11:38:27;;;;;;;4.00;2.25;;;8.00;61.60;;;;;;5016152;28;20053;-75
2023/11/23 11:40:53;;;;;;;2.85;2.20;;;7.60;64.20;;;;;;5016226;28;20022;-75
2023/11/23 11:43:20;;;;;;;2.58;2.13;;;7.30;65.90;;;;;;4998219;28;20390;-75
2023/11/23 11:45:47;;;;;;;3.38;2.28;;;7.30;66.50;;;;;;5016082;28;20037;-74
2023/11/23 11:48:13;;;;;;;2.50;1.88;;;7.60;66.10;;;;;;5015911;28;20081;-75
2023/11/23 11:50:38;;;;;;;2.30;1.92;;;8.00;64.50;;;;;;5015735;28;20491;-74
2023/11/23 11:53:07;;;;;;;2.83;2.42;;;8.40;63.20;;;;;;5015793;28;20076;-74
2023/11/23 11:55:32;;;;;;;3.10;2.30;;;8.50;62.10;;;;;;5015912;28;20014;-74
2023/11/23 11:57:58;;;;;;;3.45;2.55;;;8.90;60.60;;;;;;5015407;28;20228;-74
2023/11/23 12:00:25;;;;;;;3.67;2.75;;;10.40;58.00;;;;;;5015328;28;20026;-74
2023/11/23 12:02:51;;;;;;;2.70;2.10;;;11.20;53.40;;;;;;5015582;28;20045;-74
2023/11/23 12:05:17;;;;;;;3.08;2.38;;;11.30;51.60;;;;;;5015473;28;20026;-73
2023/11/23 12:07:50;;;;;;;2.65;2.13;;;12.40;50.00;;;;;;5015453;28;20025;-73
2023/11/23 12:10:17;;;;;;;3.92;2.97;;;12.20;48.20;;;;;;5015205;28;20022;-74
2023/11/23 12:12:47;;;;;;;6.93;2.58;;;10.40;52.10;;;;;;4997825;28;20434;-75
2023/11/23 12:15:17;;;;;;;2.22;2.03;;;9.40;57.20;;;;;;5015437;28;20080;-74
2023/11/23 12:17:50;;;;;;;3.83;2.47;;;8.80;59.00;;;;;;5015623;28;20038;-74
2023/11/23 12:20:15;;;;;;;2.33;1.60;;;8.30;62.50;;;;;;5014275;28;20072;-75
2023/11/23 12:22:41;;;;;;;1.40;1.20;;;8.10;64.30;;;;;;5015382;28;20034;-74
2023/11/23 12:25:09;;;;;;;1.33;1.02;;;7.70;66.60;;;;;;5015489;28;20439;-74
2023/11/23 12:27:34;;;;;;;1.67;1.30;;;7.40;66.90;;;;;;5015240;28;20033;-74
2023/11/23 12:30:00;;;;;;;1.90;1.42;;;7.50;67.50;;;;;;5014992;28;20578;-75
2023/11/23 12:32:25;;;;;;;1.85;0.80;;;7.60;67.60;;;;;;4997101;28;20030;-74
2023/11/23 12:34:51;;;;;;;1.55;0.70;;;7.50;69.60;;;;;;5014982;28;20026;-73
2023/11/23 12:37:17;;;;;;;1.10;0.77;;;7.50;69.00;;;;;;5014877;28;20080;-75
2023/11/23 12:39:48;;;;;;;1.88;0.77;;;7.40;69.30;;;;;;5014918;28;20022;-77
2023/11/23 12:42:13;;;;;;;1.70;0.98;;;7.50;69.70;;;;;;5015135;28;20029;-83